sensor_id;sensor_type;location;lat;lon;timestamp;temperature;humidity
32139;DHT22;18644;48.700;9.210;2022-10-17T00:00:35;14.80;63.90
32139;DHT22;18644;48.700;9.210;2022-10-17T00:03:02;14.80;64.10
32139;DHT22;18644;48.700;9.210;2022-10-17T00:05:31;14.80;64.30
32139;DHT22;18644;48.700;9.210;2022-10-17T00:07:58;14.80;64.40
32139;DHT22;18644;48.700;9.210;2022-10-17T00:10:25;14.70;64.40
32139;DHT22;18644;48.700;9.210;2022-10-17T00:12:52;14.70;64.30
32139;DHT22;18644;48.700;9.210;2022-10-17T00:15:21;14.70;64.30
32139;DHT22;18644;48.700;9.210;2022-10-17T00:17:48;14.60;64.10
32139;DHT22;18644;48.700;9.210;2022-10-17T00:20:15;14.60;64.10
32139;DHT22;18644;48.700;9.210;2022-10-17T00:22:43;14.60;64.00
32139;DHT22;18644;48.700;9.210;2022-10-17T00:25:11;14.60;64.10
32139;DHT22;18644;48.700;9.210;2022-10-17T00:27:39;14.50;64.30
32139;DHT22;18644;48.700;9.210;2022-10-17T00:30:09;14.50;64.40
32139;DHT22;18644;48.700;9.210;2022-10-17T00:32:37;14.50;64.60
32139;DHT22;18644;48.700;9.210;2022-10-17T00:35:05;14.50;64.60
32139;DHT22;18644;48.700;9.210;2022-10-17T00:37:33;14.40;64.60
32139;DHT22;18644;48.700;9.210;2022-10-17T00:40:02;14.50;64.60
32139;DHT22;18644;48.700;9.210;2022-10-17T00:42:29;14.40;64.60
32139;DHT22;18644;48.700;9.210;2022-10-17T00:47:47;14.40;64.90
32139;DHT22;18644;48.700;9.210;2022-10-17T00:50:18;14.30;64.90
32139;DHT22;18644;48.700;9.210;2022-10-17T00:52:46;14.30;65.00
32139;DHT22;18644;48.700;9.210;2022-10-17T00:55:17;14.30;65.20
32139;DHT22;18644;48.700;9.210;2022-10-17T00:57:46;14.30;65.10
32139;DHT22;18644;48.700;9.210;2022-10-17T01:00:15;14.30;65.10
32139;DHT22;18644;48.700;9.210;2022-10-17T01:02:42;14.20;65.00
32139;DHT22;18644;48.700;9.210;2022-10-17T01:05:09;14.20;65.00
32139;DHT22;18644;48.700;9.210;2022-10-17T01:07:38;14.20;65.00
32139;DHT22;18644;48.700;9.210;2022-10-17T01:10:06;14.20;65.00
32139;DHT22;18644;48.700;9.210;2022-10-17T01:12:44;14.20;65.00
32139;DHT22;18644;48.700;9.210;2022-10-17T01:15:24;14.10;65.00
32139;DHT22;18644;48.700;9.210;2022-10-17T01:18:00;14.10;64.90
32139;DHT22;18644;48.700;9.210;2022-10-17T01:21:06;14.10;65.20
32139;DHT22;18644;48.700;9.210;2022-10-17T01:24:02;14.10;65.10
32139;DHT22;18644;48.700;9.210;2022-10-17T01:26:58;14.00;64.90
32139;DHT22;18644;48.700;9.210;2022-10-17T01:30:01;14.00;65.00
32139;DHT22;18644;48.700;9.210;2022-10-17T01:32:45;14.00;65.10
32139;DHT22;18644;48.700;9.210;2022-10-17T01:35:20;13.90;65.50
32139;DHT22;18644;48.700;9.210;2022-10-17T01:37:54;13.90;65.00
32139;DHT22;18644;48.700;9.210;2022-10-17T01:40:28;13.90;65.10
32139;DHT22;18644;48.700;9.210;2022-10-17T01:42:59;13.90;65.20
32139;DHT22;18644;48.700;9.210;2022-10-17T01:45:32;13.80;65.30
32139;DHT22;18644;48.700;9.210;2022-10-17T01:48:07;13.80;65.50
32139;DHT22;18644;48.700;9.210;2022-10-17T01:50:40;13.80;65.60
32139;DHT22;18644;48.700;9.210;2022-10-17T01:53:13;13.80;65.70
32139;DHT22;18644;48.700;9.210;2022-10-17T01:55:43;13.80;65.80
32139;DHT22;18644;48.700;9.210;2022-10-17T01:58:14;13.80;65.70
32139;DHT22;18644;48.700;9.210;2022-10-17T02:00:45;13.70;65.60
32139;DHT22;18644;48.700;9.210;2022-10-17T02:03:17;13.70;65.80
32139;DHT22;18644;48.700;9.210;2022-10-17T02:05:45;13.70;65.90
32139;DHT22;18644;48.700;9.210;2022-10-17T02:08:13;13.70;65.80
32139;DHT22;18644;48.700;9.210;2022-10-17T02:10:45;13.70;65.90
32139;DHT22;18644;48.700;9.210;2022-10-17T02:13:19;13.70;66.00
32139;DHT22;18644;48.700;9.210;2022-10-17T02:16:00;13.70;66.00
32139;DHT22;18644;48.700;9.210;2022-10-17T02:18:47;13.70;66.10
32139;DHT22;18644;48.700;9.210;2022-10-17T02:21:32;13.70;66.10
32139;DHT22;18644;48.700;9.210;2022-10-17T02:24:10;13.60;65.90
32139;DHT22;18644;48.700;9.210;2022-10-17T02:26:45;13.60;65.70
32139;DHT22;18644;48.700;9.210;2022-10-17T02:29:19;13.60;65.70
32139;DHT22;18644;48.700;9.210;2022-10-17T02:31:55;13.50;65.70
32139;DHT22;18644;48.700;9.210;2022-10-17T02:34:28;13.50;65.80
32139;DHT22;18644;48.700;9.210;2022-10-17T02:36:59;13.50;66.10
32139;DHT22;18644;48.700;9.210;2022-10-17T02:39:28;13.50;66.30
32139;DHT22;18644;48.700;9.210;2022-10-17T02:41:59;13.50;66.60
32139;DHT22;18644;48.700;9.210;2022-10-17T02:44:28;13.50;66.70
32139;DHT22;18644;48.700;9.210;2022-10-17T02:47:02;13.50;66.60
32139;DHT22;18644;48.700;9.210;2022-10-17T02:49:37;13.40;66.60
32139;DHT22;18644;48.700;9.210;2022-10-17T02:52:09;13.50;66.70
32139;DHT22;18644;48.700;9.210;2022-10-17T02:54:41;13.40;66.60
32139;DHT22;18644;48.700;9.210;2022-10-17T02:57:13;13.40;66.60
32139;DHT22;18644;48.700;9.210;2022-10-17T02:59:43;13.40;66.70
32139;DHT22;18644;48.700;9.210;2022-10-17T03:02:11;13.40;66.80
32139;DHT22;18644;48.700;9.210;2022-10-17T03:04:43;13.40;67.00
32139;DHT22;18644;48.700;9.210;2022-10-17T03:07:11;13.40;67.20
32139;DHT22;18644;48.700;9.210;2022-10-17T03:09:38;13.40;67.30
32139;DHT22;18644;48.700;9.210;2022-10-17T03:12:05;13.40;67.10
32139;DHT22;18644;48.700;9.210;2022-10-17T03:14:32;13.40;67.00
32139;DHT22;18644;48.700;9.210;2022-10-17T03:16:58;13.40;66.90
32139;DHT22;18644;48.700;9.210;2022-10-17T03:19:25;13.40;66.80
32139;DHT22;18644;48.700;9.210;2022-10-17T03:21:54;13.40;67.00
32139;DHT22;18644;48.700;9.210;2022-10-17T03:24:20;13.40;67.20
32139;DHT22;18644;48.700;9.210;2022-10-17T03:26:47;13.40;67.30
32139;DHT22;18644;48.700;9.210;2022-10-17T03:29:14;13.30;67.20
32139;DHT22;18644;48.700;9.210;2022-10-17T03:31:43;13.40;67.90
32139;DHT22;18644;48.700;9.210;2022-10-17T03:34:11;13.30;67.10
32139;DHT22;18644;48.700;9.210;2022-10-17T03:36:41;13.30;67.20
32139;DHT22;18644;48.700;9.210;2022-10-17T03:39:09;13.30;67.30
32139;DHT22;18644;48.700;9.210;2022-10-17T03:41:36;13.30;67.60
32139;DHT22;18644;48.700;9.210;2022-10-17T03:44:03;13.30;67.70
32139;DHT22;18644;48.700;9.210;2022-10-17T03:46:31;13.30;67.80
32139;DHT22;18644;48.700;9.210;2022-10-17T03:48:58;13.30;68.10
32139;DHT22;18644;48.700;9.210;2022-10-17T03:51:25;13.30;68.00
32139;DHT22;18644;48.700;9.210;2022-10-17T03:53:52;13.30;67.80
32139;DHT22;18644;48.700;9.210;2022-10-17T03:56:22;13.30;67.50
32139;DHT22;18644;48.700;9.210;2022-10-17T03:58:49;13.30;67.20
32139;DHT22;18644;48.700;9.210;2022-10-17T04:01:17;13.30;67.10
32139;DHT22;18644;48.700;9.210;2022-10-17T04:03:47;13.20;67.00
32139;DHT22;18644;48.700;9.210;2022-10-17T04:06:14;13.20;67.00
32139;DHT22;18644;48.700;9.210;2022-10-17T04:08:41;13.20;67.00
32139;DHT22;18644;48.700;9.210;2022-10-17T04:11:10;13.20;67.00
32139;DHT22;18644;48.700;9.210;2022-10-17T04:13:41;13.10;67.00
32139;DHT22;18644;48.700;9.210;2022-10-17T04:16:11;13.10;67.00
32139;DHT22;18644;48.700;9.210;2022-10-17T04:18:39;13.10;67.00
32139;DHT22;18644;48.700;9.210;2022-10-17T04:21:07;13.00;67.00
32139;DHT22;18644;48.700;9.210;2022-10-17T04:23:34;13.00;67.00
32139;DHT22;18644;48.700;9.210;2022-10-17T04:26:02;13.00;67.10
32139;DHT22;18644;48.700;9.210;2022-10-17T04:28:30;13.00;67.20
32139;DHT22;18644;48.700;9.210;2022-10-17T04:31:01;13.00;67.30
32139;DHT22;18644;48.700;9.210;2022-10-17T04:33:29;12.90;67.20
32139;DHT22;18644;48.700;9.210;2022-10-17T04:35:57;12.90;67.30
32139;DHT22;18644;48.700;9.210;2022-10-17T04:38:27;12.90;67.20
32139;DHT22;18644;48.700;9.210;2022-10-17T04:40:56;12.90;67.20
32139;DHT22;18644;48.700;9.210;2022-10-17T04:43:23;12.90;67.10
32139;DHT22;18644;48.700;9.210;2022-10-17T04:45:50;12.80;67.10
32139;DHT22;18644;48.700;9.210;2022-10-17T04:48:18;12.80;67.10
32139;DHT22;18644;48.700;9.210;2022-10-17T04:50:52;12.80;67.20
32139;DHT22;18644;48.700;9.210;2022-10-17T04:53:20;12.80;67.20
32139;DHT22;18644;48.700;9.210;2022-10-17T04:55:47;12.80;67.20
32139;DHT22;18644;48.700;9.210;2022-10-17T04:58:14;12.70;67.20
32139;DHT22;18644;48.700;9.210;2022-10-17T05:00:42;12.70;67.40
32139;DHT22;18644;48.700;9.210;2022-10-17T05:03:09;12.70;67.40
32139;DHT22;18644;48.700;9.210;2022-10-17T05:05:38;12.70;67.40
32139;DHT22;18644;48.700;9.210;2022-10-17T05:08:05;12.70;67.50
32139;DHT22;18644;48.700;9.210;2022-10-17T05:10:35;12.70;68.30
32139;DHT22;18644;48.700;9.210;2022-10-17T05:13:02;12.70;67.60
32139;DHT22;18644;48.700;9.210;2022-10-17T05:15:29;12.60;67.60
32139;DHT22;18644;48.700;9.210;2022-10-17T05:17:56;12.60;67.70
32139;DHT22;18644;48.700;9.210;2022-10-17T05:20:24;12.60;67.80
32139;DHT22;18644;48.700;9.210;2022-10-17T05:22:52;12.60;67.90
32139;DHT22;18644;48.700;9.210;2022-10-17T05:25:20;12.60;67.80
32139;DHT22;18644;48.700;9.210;2022-10-17T05:27:47;12.60;67.80
32139;DHT22;18644;48.700;9.210;2022-10-17T05:30:14;12.60;67.70
32139;DHT22;18644;48.700;9.210;2022-10-17T05:32:41;12.60;67.60
32139;DHT22;18644;48.700;9.210;2022-10-17T05:35:08;12.60;67.60
32139;DHT22;18644;48.700;9.210;2022-10-17T05:37:35;12.60;67.70
32139;DHT22;18644;48.700;9.210;2022-10-17T05:40:03;12.60;67.70
32139;DHT22;18644;48.700;9.210;2022-10-17T05:42:31;12.60;67.80
32139;DHT22;18644;48.700;9.210;2022-10-17T05:44:58;12.60;67.80
32139;DHT22;18644;48.700;9.210;2022-10-17T05:47:25;12.60;67.90
32139;DHT22;18644;48.700;9.210;2022-10-17T05:49:52;12.60;68.00
32139;DHT22;18644;48.700;9.210;2022-10-17T05:52:18;12.60;68.00
32139;DHT22;18644;48.700;9.210;2022-10-17T05:54:45;12.60;68.00
32139;DHT22;18644;48.700;9.210;2022-10-17T05:57:14;12.60;68.10
32139;DHT22;18644;48.700;9.210;2022-10-17T05:59:41;12.60;68.10
32139;DHT22;18644;48.700;9.210;2022-10-17T06:02:08;12.60;68.00
32139;DHT22;18644;48.700;9.210;2022-10-17T06:04:35;12.60;68.00
32139;DHT22;18644;48.700;9.210;2022-10-17T06:07:02;12.60;68.10
32139;DHT22;18644;48.700;9.210;2022-10-17T06:09:30;12.60;68.10
32139;DHT22;18644;48.700;9.210;2022-10-17T06:11:57;12.60;68.20
32139;DHT22;18644;48.700;9.210;2022-10-17T06:14:25;12.60;68.30
32139;DHT22;18644;48.700;9.210;2022-10-17T06:16:52;12.60;68.50
32139;DHT22;18644;48.700;9.210;2022-10-17T06:19:19;12.60;68.70
32139;DHT22;18644;48.700;9.210;2022-10-17T06:21:46;12.60;69.20
32139;DHT22;18644;48.700;9.210;2022-10-17T06:24:12;12.70;69.50
32139;DHT22;18644;48.700;9.210;2022-10-17T06:26:39;12.70;69.90
32139;DHT22;18644;48.700;9.210;2022-10-17T06:29:06;12.80;70.20
32139;DHT22;18644;48.700;9.210;2022-10-17T06:31:35;12.80;70.30
32139;DHT22;18644;48.700;9.210;2022-10-17T06:34:01;12.90;70.40
32139;DHT22;18644;48.700;9.210;2022-10-17T06:36:28;12.90;70.30
32139;DHT22;18644;48.700;9.210;2022-10-17T06:38:55;12.90;70.20
32139;DHT22;18644;48.700;9.210;2022-10-17T06:41:22;13.00;70.30
32139;DHT22;18644;48.700;9.210;2022-10-17T06:43:49;13.00;70.40
32139;DHT22;18644;48.700;9.210;2022-10-17T06:46:17;13.10;70.60
32139;DHT22;18644;48.700;9.210;2022-10-17T06:48:46;13.10;70.70
32139;DHT22;18644;48.700;9.210;2022-10-17T06:51:13;13.20;71.00
32139;DHT22;18644;48.700;9.210;2022-10-17T06:53:40;13.20;71.20
32139;DHT22;18644;48.700;9.210;2022-10-17T06:56:08;13.40;71.40
32139;DHT22;18644;48.700;9.210;2022-10-17T06:58:37;13.40;71.60
32139;DHT22;18644;48.700;9.210;2022-10-17T07:01:06;13.50;71.80
32139;DHT22;18644;48.700;9.210;2022-10-17T07:03:34;13.60;71.90
32139;DHT22;18644;48.700;9.210;2022-10-17T07:06:03;13.70;72.00
32139;DHT22;18644;48.700;9.210;2022-10-17T07:08:30;13.70;72.10
32139;DHT22;18644;48.700;9.210;2022-10-17T07:10:57;13.80;72.20
32139;DHT22;18644;48.700;9.210;2022-10-17T07:13:24;13.90;72.40
32139;DHT22;18644;48.700;9.210;2022-10-17T07:15:51;14.00;72.40
32139;DHT22;18644;48.700;9.210;2022-10-17T07:18:21;14.20;72.30
32139;DHT22;18644;48.700;9.210;2022-10-17T07:20:52;14.30;72.40
32139;DHT22;18644;48.700;9.210;2022-10-17T07:23:21;14.40;72.60
32139;DHT22;18644;48.700;9.210;2022-10-17T07:25:49;14.50;72.60
32139;DHT22;18644;48.700;9.210;2022-10-17T07:28:16;14.60;72.60
32139;DHT22;18644;48.700;9.210;2022-10-17T07:30:43;14.70;72.70
32139;DHT22;18644;48.700;9.210;2022-10-17T07:33:10;14.80;72.80
32139;DHT22;18644;48.700;9.210;2022-10-17T07:35:38;15.00;72.90
32139;DHT22;18644;48.700;9.210;2022-10-17T07:38:06;15.10;73.00
32139;DHT22;18644;48.700;9.210;2022-10-17T07:40:34;15.20;73.00
32139;DHT22;18644;48.700;9.210;2022-10-17T07:43:01;15.40;73.10
32139;DHT22;18644;48.700;9.210;2022-10-17T07:45:28;15.50;73.00
32139;DHT22;18644;48.700;9.210;2022-10-17T07:47:56;15.60;73.10
32139;DHT22;18644;48.700;9.210;2022-10-17T07:50:23;15.80;73.10
32139;DHT22;18644;48.700;9.210;2022-10-17T07:52:50;15.90;73.10
32139;DHT22;18644;48.700;9.210;2022-10-17T07:55:17;16.10;73.20
32139;DHT22;18644;48.700;9.210;2022-10-17T07:57:45;16.20;73.00
32139;DHT22;18644;48.700;9.210;2022-10-17T08:00:13;16.40;72.90
32139;DHT22;18644;48.700;9.210;2022-10-17T08:02:40;16.50;72.80
32139;DHT22;18644;48.700;9.210;2022-10-17T08:05:08;16.60;73.50
32139;DHT22;18644;48.700;9.210;2022-10-17T08:07:35;16.80;72.70
32139;DHT22;18644;48.700;9.210;2022-10-17T08:10:02;16.90;72.70
32139;DHT22;18644;48.700;9.210;2022-10-17T08:12:29;17.10;72.70
32139;DHT22;18644;48.700;9.210;2022-10-17T08:15:00;17.30;72.80
32139;DHT22;18644;48.700;9.210;2022-10-17T08:17:27;17.40;72.70
32139;DHT22;18644;48.700;9.210;2022-10-17T08:19:54;17.50;72.60
32139;DHT22;18644;48.700;9.210;2022-10-17T08:22:21;17.80;72.70
32139;DHT22;18644;48.700;9.210;2022-10-17T08:24:48;17.90;72.50
32139;DHT22;18644;48.700;9.210;2022-10-17T08:27:14;18.10;72.30
32139;DHT22;18644;48.700;9.210;2022-10-17T08:29:49;18.20;71.80
32139;DHT22;18644;48.700;9.210;2022-10-17T08:32:19;18.40;72.00
32139;DHT22;18644;48.700;9.210;2022-10-17T08:34:46;18.50;71.80
32139;DHT22;18644;48.700;9.210;2022-10-17T08:37:13;18.70;71.60
32139;DHT22;18644;48.700;9.210;2022-10-17T08:39:40;18.80;71.40
32139;DHT22;18644;48.700;9.210;2022-10-17T08:42:33;19.00;71.60
32139;DHT22;18644;48.700;9.210;2022-10-17T08:45:17;19.20;71.10
32139;DHT22;18644;48.700;9.210;2022-10-17T08:47:52;19.30;71.00
32139;DHT22;18644;48.700;9.210;2022-10-17T08:50:29;19.50;71.00
32139;DHT22;18644;48.700;9.210;2022-10-17T08:53:03;19.60;70.90
32139;DHT22;18644;48.700;9.210;2022-10-17T08:55:36;19.80;71.60
32139;DHT22;18644;48.700;9.210;2022-10-17T08:58:11;20.00;70.90
32139;DHT22;18644;48.700;9.210;2022-10-17T09:00:42;20.10;70.60
32139;DHT22;18644;48.700;9.210;2022-10-17T09:03:25;20.30;70.10
32139;DHT22;18644;48.700;9.210;2022-10-17T09:06:07;20.40;69.80
32139;DHT22;18644;48.700;9.210;2022-10-17T09:08:45;20.60;70.00
32139;DHT22;18644;48.700;9.210;2022-10-17T09:11:28;20.80;69.50
32139;DHT22;18644;48.700;9.210;2022-10-17T09:14:13;20.90;69.30
32139;DHT22;18644;48.700;9.210;2022-10-17T09:17:02;21.10;69.00
32139;DHT22;18644;48.700;9.210;2022-10-17T09:19:40;21.30;69.00
32139;DHT22;18644;48.700;9.210;2022-10-17T09:22:13;21.50;68.80
32139;DHT22;18644;48.700;9.210;2022-10-17T09:24:47;21.60;68.20
32139;DHT22;18644;48.700;9.210;2022-10-17T09:27:22;21.80;68.20
32139;DHT22;18644;48.700;9.210;2022-10-17T09:29:54;21.90;68.20
32139;DHT22;18644;48.700;9.210;2022-10-17T09:32:36;22.10;67.80
32139;DHT22;18644;48.700;9.210;2022-10-17T09:35:11;22.20;67.40
32139;DHT22;18644;48.700;9.210;2022-10-17T09:37:40;22.40;67.00
32139;DHT22;18644;48.700;9.210;2022-10-17T09:40:15;22.50;67.30
32139;DHT22;18644;48.700;9.210;2022-10-17T09:42:46;22.70;66.80
32139;DHT22;18644;48.700;9.210;2022-10-17T09:45:17;22.90;66.50
32139;DHT22;18644;48.700;9.210;2022-10-17T09:47:56;23.00;66.30
32139;DHT22;18644;48.700;9.210;2022-10-17T09:50:29;23.10;66.10
32139;DHT22;18644;48.700;9.210;2022-10-17T09:53:01;23.30;66.00
32139;DHT22;18644;48.700;9.210;2022-10-17T09:55:37;23.40;65.50
32139;DHT22;18644;48.700;9.210;2022-10-17T09:58:07;23.60;65.10
32139;DHT22;18644;48.700;9.210;2022-10-17T10:00:37;23.70;64.80
32139;DHT22;18644;48.700;9.210;2022-10-17T10:03:11;23.80;64.60
32139;DHT22;18644;48.700;9.210;2022-10-17T10:05:44;23.90;64.50
32139;DHT22;18644;48.700;9.210;2022-10-17T10:08:27;24.00;63.90
32139;DHT22;18644;48.700;9.210;2022-10-17T10:10:56;24.20;63.90
32139;DHT22;18644;48.700;9.210;2022-10-17T10:13:25;24.30;63.80
32139;DHT22;18644;48.700;9.210;2022-10-17T10:15:52;24.40;63.80
32139;DHT22;18644;48.700;9.210;2022-10-17T10:18:31;24.50;63.80
32139;DHT22;18644;48.700;9.210;2022-10-17T10:21:11;24.70;63.70
32139;DHT22;18644;48.700;9.210;2022-10-17T10:23:40;24.80;63.30
32139;DHT22;18644;48.700;9.210;2022-10-17T10:26:22;25.00;63.50
32139;DHT22;18644;48.700;9.210;2022-10-17T10:28:53;25.10;62.20
32139;DHT22;18644;48.700;9.210;2022-10-17T10:31:29;25.20;62.10
32139;DHT22;18644;48.700;9.210;2022-10-17T10:34:02;25.30;61.90
32139;DHT22;18644;48.700;9.210;2022-10-17T10:36:54;25.40;61.70
32139;DHT22;18644;48.700;9.210;2022-10-17T10:42:23;25.70;60.80
32139;DHT22;18644;48.700;9.210;2022-10-17T10:44:52;25.80;60.00
32139;DHT22;18644;48.700;9.210;2022-10-17T10:47:23;25.90;60.10
32139;DHT22;18644;48.700;9.210;2022-10-17T10:50:05;26.10;60.60
32139;DHT22;18644;48.700;9.210;2022-10-17T10:52:40;26.20;60.50
32139;DHT22;18644;48.700;9.210;2022-10-17T10:55:19;26.30;60.10
32139;DHT22;18644;48.700;9.210;2022-10-17T10:57:51;26.40;59.70
32139;DHT22;18644;48.700;9.210;2022-10-17T11:00:24;26.50;59.60
32139;DHT22;18644;48.700;9.210;2022-10-17T11:02:58;26.60;59.30
32139;DHT22;18644;48.700;9.210;2022-10-17T11:05:38;26.70;59.20
32139;DHT22;18644;48.700;9.210;2022-10-17T11:08:16;26.80;58.50
32139;DHT22;18644;48.700;9.210;2022-10-17T11:10:58;27.00;57.80
32139;DHT22;18644;48.700;9.210;2022-10-17T11:13:33;27.10;57.30
32139;DHT22;18644;48.700;9.210;2022-10-17T11:16:14;27.20;57.50
32139;DHT22;18644;48.700;9.210;2022-10-17T11:18:48;27.30;57.00
32139;DHT22;18644;48.700;9.210;2022-10-17T11:21:22;27.40;57.10
32139;DHT22;18644;48.700;9.210;2022-10-17T11:24:00;27.60;56.90
32139;DHT22;18644;48.700;9.210;2022-10-17T11:26:32;27.70;56.50
32139;DHT22;18644;48.700;9.210;2022-10-17T11:29:04;27.80;55.90
32139;DHT22;18644;48.700;9.210;2022-10-17T11:31:34;28.00;55.40
32139;DHT22;18644;48.700;9.210;2022-10-17T11:34:05;28.10;54.90
32139;DHT22;18644;48.700;9.210;2022-10-17T11:36:38;28.20;54.20
32139;DHT22;18644;48.700;9.210;2022-10-17T11:39:12;28.40;53.90
32139;DHT22;18644;48.700;9.210;2022-10-17T11:41:43;28.50;53.20
32139;DHT22;18644;48.700;9.210;2022-10-17T11:44:19;28.60;52.80
32139;DHT22;18644;48.700;9.210;2022-10-17T11:46:52;28.70;52.30
32139;DHT22;18644;48.700;9.210;2022-10-17T11:49:23;28.80;53.20
32139;DHT22;18644;48.700;9.210;2022-10-17T11:51:56;28.90;52.20
32139;DHT22;18644;48.700;9.210;2022-10-17T11:54:33;29.00;51.80
32139;DHT22;18644;48.700;9.210;2022-10-17T11:57:18;29.10;50.60
32139;DHT22;18644;48.700;9.210;2022-10-17T12:00:20;29.20;50.20
32139;DHT22;18644;48.700;9.210;2022-10-17T12:02:59;29.20;49.60
32139;DHT22;18644;48.700;9.210;2022-10-17T12:05:35;29.30;49.00
32139;DHT22;18644;48.700;9.210;2022-10-17T12:08:12;29.30;48.70
32139;DHT22;18644;48.700;9.210;2022-10-17T12:10:51;29.30;47.50
32139;DHT22;18644;48.700;9.210;2022-10-17T12:13:55;29.30;48.20
32139;DHT22;18644;48.700;9.210;2022-10-17T12:16:43;29.40;47.10
32139;DHT22;18644;48.700;9.210;2022-10-17T12:19:33;29.40;46.80
32139;DHT22;18644;48.700;9.210;2022-10-17T12:22:16;29.40;46.10
32139;DHT22;18644;48.700;9.210;2022-10-17T12:24:53;29.40;46.60
32139;DHT22;18644;48.700;9.210;2022-10-17T12:27:38;29.40;46.10
32139;DHT22;18644;48.700;9.210;2022-10-17T12:30:22;29.50;45.90
32139;DHT22;18644;48.700;9.210;2022-10-17T12:33:02;29.50;45.70
32139;DHT22;18644;48.700;9.210;2022-10-17T12:35:33;29.60;46.60
32139;DHT22;18644;48.700;9.210;2022-10-17T12:41:01;29.70;46.90
32139;DHT22;18644;48.700;9.210;2022-10-17T12:43:57;29.80;46.50
32139;DHT22;18644;48.700;9.210;2022-10-17T12:46:54;29.90;45.70
32139;DHT22;18644;48.700;9.210;2022-10-17T12:49:46;29.90;45.50
32139;DHT22;18644;48.700;9.210;2022-10-17T12:52:24;30.00;45.20
32139;DHT22;18644;48.700;9.210;2022-10-17T12:55:00;30.00;45.70
32139;DHT22;18644;48.700;9.210;2022-10-17T12:57:36;30.00;45.60
32139;DHT22;18644;48.700;9.210;2022-10-17T13:00:16;30.10;45.90
32139;DHT22;18644;48.700;9.210;2022-10-17T13:02:46;30.10;44.70
32139;DHT22;18644;48.700;9.210;2022-10-17T13:05:18;30.10;44.60
32139;DHT22;18644;48.700;9.210;2022-10-17T13:07:51;30.20;44.00
32139;DHT22;18644;48.700;9.210;2022-10-17T13:10:20;30.20;44.00
32139;DHT22;18644;48.700;9.210;2022-10-17T13:12:49;30.20;44.20
32139;DHT22;18644;48.700;9.210;2022-10-17T13:15:19;30.20;44.00
32139;DHT22;18644;48.700;9.210;2022-10-17T13:17:55;30.20;43.70
32139;DHT22;18644;48.700;9.210;2022-10-17T13:20:25;30.20;43.20
32139;DHT22;18644;48.700;9.210;2022-10-17T13:22:54;30.20;43.50
32139;DHT22;18644;48.700;9.210;2022-10-17T13:25:23;30.20;43.50
32139;DHT22;18644;48.700;9.210;2022-10-17T13:28:04;30.20;43.20
32139;DHT22;18644;48.700;9.210;2022-10-17T13:30:34;30.20;42.20
32139;DHT22;18644;48.700;9.210;2022-10-17T13:33:02;30.20;43.30
32139;DHT22;18644;48.700;9.210;2022-10-17T13:35:32;30.30;43.50
32139;DHT22;18644;48.700;9.210;2022-10-17T13:38:01;30.30;42.80
32139;DHT22;18644;48.700;9.210;2022-10-17T13:40:38;30.30;42.60
32139;DHT22;18644;48.700;9.210;2022-10-17T13:43:13;30.40;41.90
32139;DHT22;18644;48.700;9.210;2022-10-17T13:45:47;30.50;41.20
32139;DHT22;18644;48.700;9.210;2022-10-17T13:48:18;30.50;41.70
32139;DHT22;18644;48.700;9.210;2022-10-17T13:50:48;30.50;41.20
32139;DHT22;18644;48.700;9.210;2022-10-17T13:53:19;30.50;41.30
32139;DHT22;18644;48.700;9.210;2022-10-17T13:55:56;30.60;41.20
32139;DHT22;18644;48.700;9.210;2022-10-17T13:58:25;30.60;41.00
32139;DHT22;18644;48.700;9.210;2022-10-17T14:00:54;30.60;41.10
32139;DHT22;18644;48.700;9.210;2022-10-17T14:03:21;30.60;40.80
32139;DHT22;18644;48.700;9.210;2022-10-17T14:06:13;30.70;41.20
32139;DHT22;18644;48.700;9.210;2022-10-17T14:08:53;30.60;41.80
32139;DHT22;18644;48.700;9.210;2022-10-17T14:11:25;30.60;42.60
32139;DHT22;18644;48.700;9.210;2022-10-17T14:13:56;30.70;42.90
32139;DHT22;18644;48.700;9.210;2022-10-17T14:16:26;30.70;43.20
32139;DHT22;18644;48.700;9.210;2022-10-17T14:19:00;30.60;42.40
32139;DHT22;18644;48.700;9.210;2022-10-17T14:21:27;30.60;42.30
32139;DHT22;18644;48.700;9.210;2022-10-17T14:24:13;30.60;42.00
32139;DHT22;18644;48.700;9.210;2022-10-17T14:26:49;30.50;41.40
32139;DHT22;18644;48.700;9.210;2022-10-17T14:29:21;30.40;41.70
32139;DHT22;18644;48.700;9.210;2022-10-17T14:31:57;30.30;41.30
32139;DHT22;18644;48.700;9.210;2022-10-17T14:34:30;30.20;41.40
32139;DHT22;18644;48.700;9.210;2022-10-17T14:37:00;30.10;41.70
32139;DHT22;18644;48.700;9.210;2022-10-17T14:39:28;30.00;42.10
32139;DHT22;18644;48.700;9.210;2022-10-17T14:41:55;29.90;42.30
32139;DHT22;18644;48.700;9.210;2022-10-17T14:44:26;29.90;42.70
32139;DHT22;18644;48.700;9.210;2022-10-17T14:46:59;29.90;42.80
32139;DHT22;18644;48.700;9.210;2022-10-17T14:49:32;29.90;42.50
32139;DHT22;18644;48.700;9.210;2022-10-17T14:52:28;29.90;43.10
32139;DHT22;18644;48.700;9.210;2022-10-17T14:54:57;30.00;42.30
32139;DHT22;18644;48.700;9.210;2022-10-17T14:57:33;30.00;43.10
32139;DHT22;18644;48.700;9.210;2022-10-17T15:00:12;30.10;43.20
32139;DHT22;18644;48.700;9.210;2022-10-17T15:02:41;30.10;43.10
32139;DHT22;18644;48.700;9.210;2022-10-17T15:05:09;30.20;42.90
32139;DHT22;18644;48.700;9.210;2022-10-17T15:07:36;30.20;42.40
32139;DHT22;18644;48.700;9.210;2022-10-17T15:10:04;30.30;42.10
32139;DHT22;18644;48.700;9.210;2022-10-17T15:12:32;30.30;42.50
32139;DHT22;18644;48.700;9.210;2022-10-17T15:15:01;30.30;42.40
32139;DHT22;18644;48.700;9.210;2022-10-17T15:17:29;30.30;42.20
32139;DHT22;18644;48.700;9.210;2022-10-17T15:19:58;30.30;42.00
32139;DHT22;18644;48.700;9.210;2022-10-17T15:22:25;30.30;41.60
32139;DHT22;18644;48.700;9.210;2022-10-17T15:24:52;30.30;41.20
32139;DHT22;18644;48.700;9.210;2022-10-17T15:27:20;30.20;41.20
32139;DHT22;18644;48.700;9.210;2022-10-17T15:29:48;30.20;41.50
32139;DHT22;18644;48.700;9.210;2022-10-17T15:32:17;30.10;41.40
32139;DHT22;18644;48.700;9.210;2022-10-17T15:34:44;30.10;41.30
32139;DHT22;18644;48.700;9.210;2022-10-17T15:37:19;30.10;41.60
32139;DHT22;18644;48.700;9.210;2022-10-17T15:39:48;30.10;41.60
32139;DHT22;18644;48.700;9.210;2022-10-17T15:42:17;30.00;41.60
32139;DHT22;18644;48.700;9.210;2022-10-17T15:44:45;30.00;41.70
32139;DHT22;18644;48.700;9.210;2022-10-17T15:47:21;30.00;41.50
32139;DHT22;18644;48.700;9.210;2022-10-17T15:49:50;29.90;41.40
32139;DHT22;18644;48.700;9.210;2022-10-17T15:52:18;29.80;41.70
32139;DHT22;18644;48.700;9.210;2022-10-17T15:54:45;29.80;41.50
32139;DHT22;18644;48.700;9.210;2022-10-17T15:57:16;29.70;41.60
32139;DHT22;18644;48.700;9.210;2022-10-17T15:59:45;29.60;41.50
32139;DHT22;18644;48.700;9.210;2022-10-17T16:02:13;29.60;41.70
32139;DHT22;18644;48.700;9.210;2022-10-17T16:04:41;29.50;41.80
32139;DHT22;18644;48.700;9.210;2022-10-17T16:07:09;29.40;41.90